sensor_id;sensor_type;location;lat;lon;timestamp;P1;durP1;ratioP1;P2;durP2;ratioP2
1993;SDS011;998;49.906;10.908;2023-05-17T00:01:45;3.37;;;1.20;;
1993;SDS011;998;49.906;10.908;2023-05-17T00:04:12;4.20;;;1.50;;
1993;SDS011;998;49.906;10.908;2023-05-17T00:06:42;3.50;;;1.17;;
1993;SDS011;998;49.906;10.908;2023-05-17T00:09:09;5.23;;;2.83;;
1993;SDS011;998;49.906;10.908;2023-05-17T00:11:37;3.00;;;1.70;;
1993;SDS011;998;49.906;10.908;2023-05-17T00:14:04;2.53;;;1.17;;
1993;SDS011;998;49.906;10.908;2023-05-17T00:16:32;4.93;;;1.20;;
1993;SDS011;998;49.906;10.908;2023-05-17T00:18:59;8.13;;;1.80;;
1993;SDS011;998;49.906;10.908;2023-05-17T00:21:26;5.70;;;1.93;;
1993;SDS011;998;49.906;10.908;2023-05-17T00:23:55;3.23;;;1.20;;
1993;SDS011;998;49.906;10.908;2023-05-17T00:26:23;2.93;;;1.23;;
1993;SDS011;998;49.906;10.908;2023-05-17T00:28:50;6.23;;;1.20;;
1993;SDS011;998;49.906;10.908;2023-05-17T00:31:17;4.23;;;1.37;;
1993;SDS011;998;49.906;10.908;2023-05-17T00:33:45;3.57;;;1.50;;
1993;SDS011;998;49.906;10.908;2023-05-17T00:36:12;3.13;;;1.40;;
1993;SDS011;998;49.906;10.908;2023-05-17T00:38:40;4.10;;;1.30;;
1993;SDS011;998;49.906;10.908;2023-05-17T00:41:08;6.60;;;1.37;;
1993;SDS011;998;49.906;10.908;2023-05-17T00:43:37;3.90;;;1.30;;
1993;SDS011;998;49.906;10.908;2023-05-17T00:46:04;2.50;;;1.40;;
1993;SDS011;998;49.906;10.908;2023-05-17T00:48:32;5.07;;;1.50;;
1993;SDS011;998;49.906;10.908;2023-05-17T00:50:59;8.70;;;1.73;;
1993;SDS011;998;49.906;10.908;2023-05-17T00:53:27;4.00;;;1.20;;
1993;SDS011;998;49.906;10.908;2023-05-17T00:55:55;5.80;;;1.40;;
1993;SDS011;998;49.906;10.908;2023-05-17T00:58:24;5.20;;;1.13;;
1993;SDS011;998;49.906;10.908;2023-05-17T01:00:51;4.53;;;1.37;;
1993;SDS011;998;49.906;10.908;2023-05-17T01:03:19;7.60;;;1.50;;
1993;SDS011;998;49.906;10.908;2023-05-17T01:05:48;4.53;;;1.83;;
1993;SDS011;998;49.906;10.908;2023-05-17T01:08:16;5.97;;;1.50;;
1993;SDS011;998;49.906;10.908;2023-05-17T01:10:46;5.77;;;1.73;;
1993;SDS011;998;49.906;10.908;2023-05-17T01:13:21;2.80;;;1.10;;
1993;SDS011;998;49.906;10.908;2023-05-17T01:16:00;4.63;;;1.70;;
1993;SDS011;998;49.906;10.908;2023-05-17T01:18:33;5.90;;;1.27;;
1993;SDS011;998;49.906;10.908;2023-05-17T01:21:16;5.70;;;2.10;;
1993;SDS011;998;49.906;10.908;2023-05-17T01:23:54;4.23;;;1.50;;
1993;SDS011;998;49.906;10.908;2023-05-17T01:26:33;3.93;;;1.30;;
1993;SDS011;998;49.906;10.908;2023-05-17T01:29:03;4.13;;;1.73;;
1993;SDS011;998;49.906;10.908;2023-05-17T01:31:34;3.93;;;1.53;;
1993;SDS011;998;49.906;10.908;2023-05-17T01:34:05;5.20;;;1.40;;
1993;SDS011;998;49.906;10.908;2023-05-17T01:36:33;4.50;;;1.50;;
1993;SDS011;998;49.906;10.908;2023-05-17T01:39:01;3.77;;;1.60;;
1993;SDS011;998;49.906;10.908;2023-05-17T01:41:29;4.07;;;1.70;;
1993;SDS011;998;49.906;10.908;2023-05-17T01:44:06;4.73;;;1.23;;
1993;SDS011;998;49.906;10.908;2023-05-17T01:46:40;2.90;;;1.23;;
1993;SDS011;998;49.906;10.908;2023-05-17T01:49:10;4.17;;;1.40;;
1993;SDS011;998;49.906;10.908;2023-05-17T01:51:44;4.27;;;1.77;;
1993;SDS011;998;49.906;10.908;2023-05-17T01:54:14;25.07;;;3.17;;
1993;SDS011;998;49.906;10.908;2023-05-17T01:56:50;4.40;;;1.63;;
1993;SDS011;998;49.906;10.908;2023-05-17T01:59:22;3.40;;;1.40;;
1993;SDS011;998;49.906;10.908;2023-05-17T02:01:51;4.10;;;1.70;;
1993;SDS011;998;49.906;10.908;2023-05-17T02:04:21;4.77;;;1.70;;
1993;SDS011;998;49.906;10.908;2023-05-17T02:06:48;5.70;;;1.50;;
1993;SDS011;998;49.906;10.908;2023-05-17T02:09:15;3.40;;;1.57;;
1993;SDS011;998;49.906;10.908;2023-05-17T02:11:42;3.50;;;1.73;;
1993;SDS011;998;49.906;10.908;2023-05-17T02:14:11;8.40;;;2.00;;
1993;SDS011;998;49.906;10.908;2023-05-17T02:16:38;7.93;;;2.27;;
1993;SDS011;998;49.906;10.908;2023-05-17T02:19:06;4.83;;;1.90;;
1993;SDS011;998;49.906;10.908;2023-05-17T02:21:33;7.20;;;2.80;;
1993;SDS011;998;49.906;10.908;2023-05-17T02:24:00;12.00;;;2.70;;
1993;SDS011;998;49.906;10.908;2023-05-17T02:26:28;7.30;;;2.90;;
1993;SDS011;998;49.906;10.908;2023-05-17T02:28:55;4.47;;;1.87;;
1993;SDS011;998;49.906;10.908;2023-05-17T02:31:25;6.93;;;3.70;;
1993;SDS011;998;49.906;10.908;2023-05-17T02:33:53;5.20;;;2.97;;
1993;SDS011;998;49.906;10.908;2023-05-17T02:36:21;10.50;;;4.40;;
1993;SDS011;998;49.906;10.908;2023-05-17T02:38:48;6.30;;;2.90;;
1993;SDS011;998;49.906;10.908;2023-05-17T02:41:16;8.03;;;3.33;;
1993;SDS011;998;49.906;10.908;2023-05-17T02:43:43;7.27;;;3.00;;
1993;SDS011;998;49.906;10.908;2023-05-17T02:46:10;7.80;;;3.27;;
1993;SDS011;998;49.906;10.908;2023-05-17T02:48:39;9.30;;;4.10;;
1993;SDS011;998;49.906;10.908;2023-05-17T02:51:07;9.93;;;3.20;;
1993;SDS011;998;49.906;10.908;2023-05-17T02:53:35;4.60;;;2.43;;
1993;SDS011;998;49.906;10.908;2023-05-17T02:56:02;7.67;;;4.23;;
1993;SDS011;998;49.906;10.908;2023-05-17T02:58:30;8.23;;;2.33;;
1993;SDS011;998;49.906;10.908;2023-05-17T03:00:57;8.30;;;3.23;;
1993;SDS011;998;49.906;10.908;2023-05-17T03:03:25;4.53;;;1.97;;
1993;SDS011;998;49.906;10.908;2023-05-17T03:05:53;4.10;;;1.90;;
1993;SDS011;998;49.906;10.908;2023-05-17T03:08:25;5.77;;;1.87;;
1993;SDS011;998;49.906;10.908;2023-05-17T03:10:52;5.60;;;1.50;;
1993;SDS011;998;49.906;10.908;2023-05-17T03:13:19;5.80;;;2.00;;
1993;SDS011;998;49.906;10.908;2023-05-17T03:15:46;2.90;;;1.20;;
1993;SDS011;998;49.906;10.908;2023-05-17T03:18:14;4.40;;;1.50;;
1993;SDS011;998;49.906;10.908;2023-05-17T03:20:41;6.40;;;1.77;;
1993;SDS011;998;49.906;10.908;2023-05-17T03:23:10;6.63;;;1.60;;
1993;SDS011;998;49.906;10.908;2023-05-17T03:25:37;5.03;;;1.83;;
1993;SDS011;998;49.906;10.908;2023-05-17T03:28:05;10.83;;;1.67;;
1993;SDS011;998;49.906;10.908;2023-05-17T03:30:32;4.17;;;1.33;;
1993;SDS011;998;49.906;10.908;2023-05-17T03:32:59;4.63;;;1.73;;
1993;SDS011;998;49.906;10.908;2023-05-17T03:35:27;3.73;;;1.90;;
1993;SDS011;998;49.906;10.908;2023-05-17T03:37:54;10.97;;;1.27;;
1993;SDS011;998;49.906;10.908;2023-05-17T03:40:23;5.80;;;1.93;;
1993;SDS011;998;49.906;10.908;2023-05-17T03:42:50;3.30;;;1.33;;
1993;SDS011;998;49.906;10.908;2023-05-17T03:45:18;3.77;;;1.50;;
1993;SDS011;998;49.906;10.908;2023-05-17T03:47:46;2.73;;;1.37;;
1993;SDS011;998;49.906;10.908;2023-05-17T03:50:13;3.53;;;1.40;;
1993;SDS011;998;49.906;10.908;2023-05-17T03:52:40;3.40;;;1.80;;
1993;SDS011;998;49.906;10.908;2023-05-17T03:55:08;5.00;;;1.50;;
1993;SDS011;998;49.906;10.908;2023-05-17T03:57:37;3.13;;;1.83;;
1993;SDS011;998;49.906;10.908;2023-05-17T04:00:05;4.57;;;1.70;;
1993;SDS011;998;49.906;10.908;2023-05-17T04:02:35;3.70;;;1.80;;
1993;SDS011;998;49.906;10.908;2023-05-17T04:05:03;7.40;;;2.30;;
1993;SDS011;998;49.906;10.908;2023-05-17T04:07:31;3.67;;;1.93;;
1993;SDS011;998;49.906;10.908;2023-05-17T04:09:58;4.20;;;2.23;;
1993;SDS011;998;49.906;10.908;2023-05-17T04:12:27;4.13;;;2.00;;
1993;SDS011;998;49.906;10.908;2023-05-17T04:14:56;3.93;;;1.80;;
1993;SDS011;998;49.906;10.908;2023-05-17T04:17:23;5.27;;;1.77;;
1993;SDS011;998;49.906;10.908;2023-05-17T04:19:50;3.60;;;1.73;;
1993;SDS011;998;49.906;10.908;2023-05-17T04:22:18;4.13;;;1.77;;
1993;SDS011;998;49.906;10.908;2023-05-17T04:24:46;5.57;;;1.63;;
1993;SDS011;998;49.906;10.908;2023-05-17T04:27:13;4.90;;;1.57;;
1993;SDS011;998;49.906;10.908;2023-05-17T04:29:40;4.50;;;2.30;;
1993;SDS011;998;49.906;10.908;2023-05-17T04:32:09;3.70;;;1.70;;
1993;SDS011;998;49.906;10.908;2023-05-17T04:34:37;3.03;;;1.50;;
1993;SDS011;998;49.906;10.908;2023-05-17T04:37:05;3.83;;;1.80;;
1993;SDS011;998;49.906;10.908;2023-05-17T04:39:32;4.50;;;1.90;;
1993;SDS011;998;49.906;10.908;2023-05-17T04:41:59;6.77;;;1.90;;
1993;SDS011;998;49.906;10.908;2023-05-17T04:44:27;5.57;;;1.77;;
1993;SDS011;998;49.906;10.908;2023-05-17T04:46:55;4.80;;;2.00;;
1993;SDS011;998;49.906;10.908;2023-05-17T04:49:23;4.93;;;2.27;;
1993;SDS011;998;49.906;10.908;2023-05-17T04:51:51;8.03;;;3.30;;
1993;SDS011;998;49.906;10.908;2023-05-17T04:54:18;6.37;;;3.27;;
1993;SDS011;998;49.906;10.908;2023-05-17T04:56:45;5.23;;;1.80;;
1993;SDS011;998;49.906;10.908;2023-05-17T04:59:12;4.33;;;1.70;;
1993;SDS011;998;49.906;10.908;2023-05-17T05:01:40;3.70;;;1.80;;
1993;SDS011;998;49.906;10.908;2023-05-17T05:04:07;3.90;;;2.23;;
1993;SDS011;998;49.906;10.908;2023-05-17T05:06:36;6.70;;;3.93;;
1993;SDS011;998;49.906;10.908;2023-05-17T05:09:03;8.70;;;2.80;;
1993;SDS011;998;49.906;10.908;2023-05-17T05:11:31;8.37;;;3.27;;
1993;SDS011;998;49.906;10.908;2023-05-17T05:13:58;8.03;;;4.60;;
1993;SDS011;998;49.906;10.908;2023-05-17T05:16:25;7.20;;;2.93;;
1993;SDS011;998;49.906;10.908;2023-05-17T05:18:52;6.47;;;3.03;;
1993;SDS011;998;49.906;10.908;2023-05-17T05:21:20;6.90;;;2.77;;
1993;SDS011;998;49.906;10.908;2023-05-17T05:23:48;8.30;;;4.10;;
1993;SDS011;998;49.906;10.908;2023-05-17T05:26:16;7.60;;;4.00;;
1993;SDS011;998;49.906;10.908;2023-05-17T05:28:43;11.10;;;4.43;;
1993;SDS011;998;49.906;10.908;2023-05-17T05:31:11;7.80;;;2.90;;
1993;SDS011;998;49.906;10.908;2023-05-17T05:33:38;6.43;;;2.97;;
1993;SDS011;998;49.906;10.908;2023-05-17T05:36:06;12.43;;;2.40;;
1993;SDS011;998;49.906;10.908;2023-05-17T05:38:33;4.60;;;2.97;;
1993;SDS011;998;49.906;10.908;2023-05-17T05:41:02;5.10;;;2.20;;
1993;SDS011;998;49.906;10.908;2023-05-17T05:43:30;6.40;;;2.13;;
1993;SDS011;998;49.906;10.908;2023-05-17T05:46:00;8.07;;;2.53;;
1993;SDS011;998;49.906;10.908;2023-05-17T05:48:26;6.10;;;2.33;;
1993;SDS011;998;49.906;10.908;2023-05-17T05:50:53;7.20;;;2.50;;
1993;SDS011;998;49.906;10.908;2023-05-17T05:53:20;8.63;;;2.07;;
1993;SDS011;998;49.906;10.908;2023-05-17T05:55:48;8.17;;;2.80;;
1993;SDS011;998;49.906;10.908;2023-05-17T05:58:17;6.17;;;2.70;;
1993;SDS011;998;49.906;10.908;2023-05-17T06:00:44;8.87;;;2.30;;
1993;SDS011;998;49.906;10.908;2023-05-17T06:03:11;4.97;;;2.43;;
1993;SDS011;998;49.906;10.908;2023-05-17T06:05:39;7.27;;;2.53;;
1993;SDS011;998;49.906;10.908;2023-05-17T06:08:06;10.20;;;2.30;;
1993;SDS011;998;49.906;10.908;2023-05-17T06:10:33;6.60;;;2.30;;
1993;SDS011;998;49.906;10.908;2023-05-17T06:13:00;6.80;;;2.40;;
1993;SDS011;998;49.906;10.908;2023-05-17T06:15:29;6.50;;;3.07;;
1993;SDS011;998;49.906;10.908;2023-05-17T06:17:56;5.80;;;2.50;;
1993;SDS011;998;49.906;10.908;2023-05-17T06:20:24;5.57;;;2.60;;
1993;SDS011;998;49.906;10.908;2023-05-17T06:22:51;5.53;;;2.50;;
1993;SDS011;998;49.906;10.908;2023-05-17T06:25:18;4.67;;;2.10;;
1993;SDS011;998;49.906;10.908;2023-05-17T06:27:46;8.47;;;2.30;;
1993;SDS011;998;49.906;10.908;2023-05-17T06:30:13;7.10;;;3.07;;
1993;SDS011;998;49.906;10.908;2023-05-17T06:32:42;8.80;;;2.60;;
1993;SDS011;998;49.906;10.908;2023-05-17T06:35:09;6.93;;;2.10;;
1993;SDS011;998;49.906;10.908;2023-05-17T06:37:37;3.50;;;1.97;;
1993;SDS011;998;49.906;10.908;2023-05-17T06:40:05;7.97;;;1.97;;
1993;SDS011;998;49.906;10.908;2023-05-17T06:42:34;4.67;;;2.20;;
1993;SDS011;998;49.906;10.908;2023-05-17T06:45:02;7.13;;;2.80;;
1993;SDS011;998;49.906;10.908;2023-05-17T06:47:29;8.00;;;2.47;;
1993;SDS011;998;49.906;10.908;2023-05-17T06:49:58;7.93;;;2.13;;
1993;SDS011;998;49.906;10.908;2023-05-17T06:52:25;7.53;;;2.00;;
1993;SDS011;998;49.906;10.908;2023-05-17T06:54:53;7.00;;;2.37;;
1993;SDS011;998;49.906;10.908;2023-05-17T06:57:20;5.70;;;2.03;;
1993;SDS011;998;49.906;10.908;2023-05-17T06:59:48;5.60;;;2.60;;
1993;SDS011;998;49.906;10.908;2023-05-17T07:02:16;6.17;;;2.07;;
1993;SDS011;998;49.906;10.908;2023-05-17T07:04:43;7.33;;;3.00;;
1993;SDS011;998;49.906;10.908;2023-05-17T07:07:11;13.17;;;2.63;;
1993;SDS011;998;49.906;10.908;2023-05-17T07:09:38;12.33;;;2.97;;
1993;SDS011;998;49.906;10.908;2023-05-17T07:12:06;10.60;;;2.23;;
1993;SDS011;998;49.906;10.908;2023-05-17T07:14:33;7.17;;;2.33;;
1993;SDS011;998;49.906;10.908;2023-05-17T07:17:01;5.60;;;2.70;;
1993;SDS011;998;49.906;10.908;2023-05-17T07:19:28;7.67;;;2.30;;
1993;SDS011;998;49.906;10.908;2023-05-17T07:21:55;8.90;;;2.43;;
1993;SDS011;998;49.906;10.908;2023-05-17T07:24:23;14.00;;;3.40;;
1993;SDS011;998;49.906;10.908;2023-05-17T07:26:51;7.30;;;3.03;;
1993;SDS011;998;49.906;10.908;2023-05-17T07:29:18;7.20;;;2.43;;
1993;SDS011;998;49.906;10.908;2023-05-17T07:31:45;5.70;;;2.67;;
1993;SDS011;998;49.906;10.908;2023-05-17T07:34:13;5.63;;;3.03;;
1993;SDS011;998;49.906;10.908;2023-05-17T07:36:40;7.93;;;3.20;;
1993;SDS011;998;49.906;10.908;2023-05-17T07:39:07;6.87;;;2.57;;
1993;SDS011;998;49.906;10.908;2023-05-17T07:41:36;5.40;;;2.37;;
1993;SDS011;998;49.906;10.908;2023-05-17T07:44:03;6.77;;;2.40;;
1993;SDS011;998;49.906;10.908;2023-05-17T07:46:31;3.80;;;2.40;;
1993;SDS011;998;49.906;10.908;2023-05-17T07:48:58;5.00;;;2.50;;
1993;SDS011;998;49.906;10.908;2023-05-17T07:51:25;6.70;;;3.03;;
1993;SDS011;998;49.906;10.908;2023-05-17T07:53:53;6.93;;;2.73;;
1993;SDS011;998;49.906;10.908;2023-05-17T07:56:20;8.77;;;2.20;;
1993;SDS011;998;49.906;10.908;2023-05-17T07:58:48;6.13;;;2.63;;
1993;SDS011;998;49.906;10.908;2023-05-17T08:01:16;5.77;;;2.53;;
1993;SDS011;998;49.906;10.908;2023-05-17T08:03:43;4.80;;;2.20;;
1993;SDS011;998;49.906;10.908;2023-05-17T08:06:13;4.57;;;2.30;;
1993;SDS011;998;49.906;10.908;2023-05-17T08:08:41;5.87;;;2.33;;
1993;SDS011;998;49.906;10.908;2023-05-17T08:11:09;6.67;;;2.37;;
1993;SDS011;998;49.906;10.908;2023-05-17T08:13:37;11.70;;;2.40;;
1993;SDS011;998;49.906;10.908;2023-05-17T08:16:06;5.70;;;3.10;;
1993;SDS011;998;49.906;10.908;2023-05-17T08:18:33;6.37;;;2.43;;
1993;SDS011;998;49.906;10.908;2023-05-17T08:21:01;5.43;;;2.33;;
1993;SDS011;998;49.906;10.908;2023-05-17T08:23:28;4.93;;;2.70;;
1993;SDS011;998;49.906;10.908;2023-05-17T08:25:56;6.40;;;2.67;;
1993;SDS011;998;49.906;10.908;2023-05-17T08:28:23;6.40;;;2.20;;
1993;SDS011;998;49.906;10.908;2023-05-17T08:30:51;5.83;;;3.00;;
1993;SDS011;998;49.906;10.908;2023-05-17T08:33:19;5.90;;;1.87;;
1993;SDS011;998;49.906;10.908;2023-05-17T08:35:49;7.70;;;2.10;;
1993;SDS011;998;49.906;10.908;2023-05-17T08:38:19;5.60;;;2.80;;
1993;SDS011;998;49.906;10.908;2023-05-17T08:40:51;4.70;;;3.30;;
1993;SDS011;998;49.906;10.908;2023-05-17T08:43:19;6.70;;;3.00;;
1993;SDS011;998;49.906;10.908;2023-05-17T08:45:49;6.80;;;3.97;;
1993;SDS011;998;49.906;10.908;2023-05-17T08:48:17;7.27;;;2.40;;
1993;SDS011;998;49.906;10.908;2023-05-17T08:50:46;7.70;;;2.70;;
1993;SDS011;998;49.906;10.908;2023-05-17T08:53:16;4.63;;;2.60;;
1993;SDS011;998;49.906;10.908;2023-05-17T08:55:44;9.83;;;3.60;;
1993;SDS011;998;49.906;10.908;2023-05-17T08:58:13;8.97;;;3.00;;
1993;SDS011;998;49.906;10.908;2023-05-17T09:00:42;8.23;;;2.90;;
1993;SDS011;998;49.906;10.908;2023-05-17T09:03:10;8.47;;;3.57;;
1993;SDS011;998;49.906;10.908;2023-05-17T09:05:43;6.73;;;2.40;;
1993;SDS011;998;49.906;10.908;2023-05-17T09:08:12;5.37;;;2.93;;
1993;SDS011;998;49.906;10.908;2023-05-17T09:10:39;5.70;;;2.30;;
1993;SDS011;998;49.906;10.908;2023-05-17T09:13:06;6.77;;;2.80;;
1993;SDS011;998;49.906;10.908;2023-05-17T09:15:33;6.70;;;2.20;;
1993;SDS011;998;49.906;10.908;2023-05-17T09:18:02;3.83;;;2.13;;
1993;SDS011;998;49.906;10.908;2023-05-17T09:20:29;5.87;;;2.37;;
1993;SDS011;998;49.906;10.908;2023-05-17T09:23:00;7.00;;;2.87;;
1993;SDS011;998;49.906;10.908;2023-05-17T09:25:28;5.93;;;2.80;;
1993;SDS011;998;49.906;10.908;2023-05-17T09:27:59;5.67;;;3.13;;
1993;SDS011;998;49.906;10.908;2023-05-17T09:30:27;5.67;;;2.57;;
1993;SDS011;998;49.906;10.908;2023-05-17T09:32:54;9.50;;;2.50;;
1993;SDS011;998;49.906;10.908;2023-05-17T09:35:26;6.57;;;2.97;;
1993;SDS011;998;49.906;10.908;2023-05-17T09:37:54;7.60;;;3.00;;
1993;SDS011;998;49.906;10.908;2023-05-17T09:40:32;6.60;;;3.00;;
1993;SDS011;998;49.906;10.908;2023-05-17T09:42:59;6.83;;;3.23;;
1993;SDS011;998;49.906;10.908;2023-05-17T09:45:27;6.73;;;3.20;;
1993;SDS011;998;49.906;10.908;2023-05-17T09:48:02;6.47;;;3.10;;
1993;SDS011;998;49.906;10.908;2023-05-17T09:50:42;6.57;;;2.60;;
1993;SDS011;998;49.906;10.908;2023-05-17T09:53:23;9.80;;;3.07;;
1993;SDS011;998;49.906;10.908;2023-05-17T09:55:53;5.03;;;2.40;;
1993;SDS011;998;49.906;10.908;2023-05-17T09:58:23;7.10;;;2.57;;
1993;SDS011;998;49.906;10.908;2023-05-17T10:00:51;6.67;;;2.83;;
1993;SDS011;998;49.906;10.908;2023-05-17T10:03:20;8.97;;;3.47;;
1993;SDS011;998;49.906;10.908;2023-05-17T10:05:49;4.97;;;2.90;;
1993;SDS011;998;49.906;10.908;2023-05-17T10:08:19;8.23;;;2.63;;
1993;SDS011;998;49.906;10.908;2023-05-17T10:10:50;5.40;;;2.73;;
1993;SDS011;998;49.906;10.908;2023-05-17T10:13:21;7.07;;;3.50;;
1993;SDS011;998;49.906;10.908;2023-05-17T10:15:51;6.43;;;2.50;;
1993;SDS011;998;49.906;10.908;2023-05-17T10:18:19;8.23;;;2.77;;
1993;SDS011;998;49.906;10.908;2023-05-17T10:20:47;8.00;;;3.10;;
1993;SDS011;998;49.906;10.908;2023-05-17T10:23:15;6.90;;;2.20;;
1993;SDS011;998;49.906;10.908;2023-05-17T10:25:44;6.00;;;2.70;;
1993;SDS011;998;49.906;10.908;2023-05-17T10:28:14;5.50;;;2.97;;
1993;SDS011;998;49.906;10.908;2023-05-17T10:30:43;6.03;;;2.47;;
1993;SDS011;998;49.906;10.908;2023-05-17T10:33:13;4.83;;;2.40;;
1993;SDS011;998;49.906;10.908;2023-05-17T10:35:42;4.63;;;2.37;;
1993;SDS011;998;49.906;10.908;2023-05-17T10:38:11;5.90;;;2.80;;
1993;SDS011;998;49.906;10.908;2023-05-17T10:40:38;7.00;;;2.67;;
1993;SDS011;998;49.906;10.908;2023-05-17T10:43:07;7.30;;;3.07;;
1993;SDS011;998;49.906;10.908;2023-05-17T10:45:37;5.77;;;2.53;;
1993;SDS011;998;49.906;10.908;2023-05-17T10:48:06;5.70;;;2.73;;
1993;SDS011;998;49.906;10.908;2023-05-17T10:50:36;7.33;;;2.80;;
1993;SDS011;998;49.906;10.908;2023-05-17T10:53:07;6.43;;;3.50;;
1993;SDS011;998;49.906;10.908;2023-05-17T10:55:36;9.03;;;3.50;;
1993;SDS011;998;49.906;10.908;2023-05-17T10:58:12;10.77;;;3.40;;
1993;SDS011;998;49.906;10.908;2023-05-17T11:00:43;12.80;;;3.33;;
1993;SDS011;998;49.906;10.908;2023-05-17T11:03:13;6.67;;;2.97;;
1993;SDS011;998;49.906;10.908;2023-05-17T11:05:42;5.43;;;2.97;;
1993;SDS011;998;49.906;10.908;2023-05-17T11:08:11;5.80;;;2.53;;
1993;SDS011;998;49.906;10.908;2023-05-17T11:13:42;6.90;;;3.03;;
1993;SDS011;998;49.906;10.908;2023-05-17T11:16:14;7.23;;;2.30;;
1993;SDS011;998;49.906;10.908;2023-05-17T11:18:46;7.90;;;3.27;;
1993;SDS011;998;49.906;10.908;2023-05-17T11:21:17;4.63;;;2.63;;
1993;SDS011;998;49.906;10.908;2023-05-17T11:23:45;9.07;;;3.97;;
1993;SDS011;998;49.906;10.908;2023-05-17T11:26:20;7.60;;;2.53;;
1993;SDS011;998;49.906;10.908;2023-05-17T11:28:55;5.20;;;2.70;;
1993;SDS011;998;49.906;10.908;2023-05-17T11:31:32;4.43;;;2.23;;
1993;SDS011;998;49.906;10.908;2023-05-17T11:34:01;8.90;;;2.60;;
1993;SDS011;998;49.906;10.908;2023-05-17T11:36:29;7.60;;;2.70;;
1993;SDS011;998;49.906;10.908;2023-05-17T11:39:09;6.23;;;2.80;;
1993;SDS011;998;49.906;10.908;2023-05-17T11:41:38;6.93;;;3.10;;
1993;SDS011;998;49.906;10.908;2023-05-17T11:44:13;5.40;;;2.57;;
1993;SDS011;998;49.906;10.908;2023-05-17T11:46:44;6.27;;;3.00;;
1993;SDS011;998;49.906;10.908;2023-05-17T11:49:12;7.00;;;2.70;;
1993;SDS011;998;49.906;10.908;2023-05-17T11:51:41;6.50;;;2.70;;
1993;SDS011;998;49.906;10.908;2023-05-17T11:54:11;8.43;;;3.40;;
1993;SDS011;998;49.906;10.908;2023-05-17T11:56:39;6.40;;;3.20;;
1993;SDS011;998;49.906;10.908;2023-05-17T11:59:07;6.17;;;3.07;;
1993;SDS011;998;49.906;10.908;2023-05-17T12:01:41;6.80;;;3.10;;
1993;SDS011;998;49.906;10.908;2023-05-17T12:04:11;5.53;;;2.80;;
1993;SDS011;998;49.906;10.908;2023-05-17T12:06:38;7.47;;;3.10;;
1993;SDS011;998;49.906;10.908;2023-05-17T12:09:06;6.93;;;3.07;;
1993;SDS011;998;49.906;10.908;2023-05-17T12:11:35;15.53;;;3.10;;
1993;SDS011;998;49.906;10.908;2023-05-17T12:14:03;7.80;;;3.87;;
1993;SDS011;998;49.906;10.908;2023-05-17T12:16:31;5.37;;;2.30;;
1993;SDS011;998;49.906;10.908;2023-05-17T12:19:01;7.57;;;3.20;;
1993;SDS011;998;49.906;10.908;2023-05-17T12:21:30;5.77;;;2.93;;
1993;SDS011;998;49.906;10.908;2023-05-17T12:23:58;7.50;;;2.50;;
1993;SDS011;998;49.906;10.908;2023-05-17T12:26:26;3.93;;;2.17;;
1993;SDS011;998;49.906;10.908;2023-05-17T12:28:53;4.77;;;2.27;;
1993;SDS011;998;49.906;10.908;2023-05-17T12:31:24;10.40;;;2.70;;
1993;SDS011;998;49.906;10.908;2023-05-17T12:33:54;6.47;;;2.60;;
1993;SDS011;998;49.906;10.908;2023-05-17T12:36:23;6.60;;;2.47;;
1993;SDS011;998;49.906;10.908;2023-05-17T12:38:54;7.73;;;2.87;;
1993;SDS011;998;49.906;10.908;2023-05-17T12:41:22;6.93;;;2.73;;
1993;SDS011;998;49.906;10.908;2023-05-17T12:43:51;6.37;;;3.60;;
1993;SDS011;998;49.906;10.908;2023-05-17T12:46:20;9.53;;;3.80;;
1993;SDS011;998;49.906;10.908;2023-05-17T12:48:49;5.97;;;3.50;;
1993;SDS011;998;49.906;10.908;2023-05-17T12:51:17;7.70;;;3.00;;
1993;SDS011;998;49.906;10.908;2023-05-17T12:53:48;4.57;;;2.60;;
1993;SDS011;998;49.906;10.908;2023-05-17T12:56:18;4.50;;;2.30;;
1993;SDS011;998;49.906;10.908;2023-05-17T13:01:31;5.83;;;2.90;;
1993;SDS011;998;49.906;10.908;2023-05-17T13:03:59;6.97;;;2.97;;
1993;SDS011;998;49.906;10.908;2023-05-17T13:06:27;5.50;;;2.80;;
1993;SDS011;998;49.906;10.908;2023-05-17T13:08:58;7.63;;;2.70;;
1993;SDS011;998;49.906;10.908;2023-05-17T13:11:27;4.93;;;2.77;;
1993;SDS011;998;49.906;10.908;2023-05-17T13:13:55;5.70;;;3.60;;
1993;SDS011;998;49.906;10.908;2023-05-17T13:16:28;7.73;;;3.53;;
1993;SDS011;998;49.906;10.908;2023-05-17T13:18:56;4.67;;;2.63;;
1993;SDS011;998;49.906;10.908;2023-05-17T13:21:23;6.37;;;3.13;;
1993;SDS011;998;49.906;10.908;2023-05-17T13:23:51;6.40;;;3.03;;
1993;SDS011;998;49.906;10.908;2023-05-17T13:26:18;13.10;;;6.37;;
1993;SDS011;998;49.906;10.908;2023-05-17T13:28:48;10.13;;;3.07;;
1993;SDS011;998;49.906;10.908;2023-05-17T13:31:15;7.60;;;4.53;;
1993;SDS011;998;49.906;10.908;2023-05-17T13:33:42;7.80;;;3.00;;
1993;SDS011;998;49.906;10.908;2023-05-17T13:36:12;4.10;;;2.33;;
1993;SDS011;998;49.906;10.908;2023-05-17T13:38:39;5.53;;;3.10;;
1993;SDS011;998;49.906;10.908;2023-05-17T13:41:07;6.40;;;3.47;;
1993;SDS011;998;49.906;10.908;2023-05-17T13:43:35;5.03;;;2.33;;
1993;SDS011;998;49.906;10.908;2023-05-17T13:46:04;7.33;;;2.47;;
1993;SDS011;998;49.906;10.908;2023-05-17T13:48:31;9.43;;;3.43;;
1993;SDS011;998;49.906;10.908;2023-05-17T13:50:59;7.30;;;3.23;;
1993;SDS011;998;49.906;10.908;2023-05-17T13:53:26;9.30;;;3.00;;
1993;SDS011;998;49.906;10.908;2023-05-17T13:55:54;8.03;;;3.60;;
1993;SDS011;998;49.906;10.908;2023-05-17T13:58:21;7.83;;;3.67;;
1993;SDS011;998;49.906;10.908;2023-05-17T14:00:49;4.43;;;2.70;;
1993;SDS011;998;49.906;10.908;2023-05-17T14:03:17;5.70;;;2.57;;
1993;SDS011;998;49.906;10.908;2023-05-17T14:05:45;5.43;;;2.20;;
1993;SDS011;998;49.906;10.908;2023-05-17T14:08:14;6.27;;;2.77;;
1993;SDS011;998;49.906;10.908;2023-05-17T14:10:42;5.47;;;2.70;;
1993;SDS011;998;49.906;10.908;2023-05-17T14:13:09;6.27;;;2.80;;
1993;SDS011;998;49.906;10.908;2023-05-17T14:15:37;6.83;;;3.50;;
1993;SDS011;998;49.906;10.908;2023-05-17T14:18:04;5.13;;;3.10;;
1993;SDS011;998;49.906;10.908;2023-05-17T14:20:34;4.10;;;2.03;;
1993;SDS011;998;49.906;10.908;2023-05-17T14:23:01;5.33;;;2.83;;
1993;SDS011;998;49.906;10.908;2023-05-17T14:25:29;8.50;;;3.17;;
1993;SDS011;998;49.906;10.908;2023-05-17T14:27:56;7.87;;;3.50;;
1993;SDS011;998;49.906;10.908;2023-05-17T14:30:24;5.10;;;2.67;;
1993;SDS011;998;49.906;10.908;2023-05-17T14:32:51;6.30;;;2.50;;
1993;SDS011;998;49.906;10.908;2023-05-17T14:35:19;7.03;;;2.47;;
1993;SDS011;998;49.906;10.908;2023-05-17T14:37:48;4.83;;;2.50;;
1993;SDS011;998;49.906;10.908;2023-05-17T14:40:15;6.23;;;2.13;;
1993;SDS011;998;49.906;10.908;2023-05-17T14:42:42;5.27;;;2.20;;
1993;SDS011;998;49.906;10.908;2023-05-17T14:45:10;6.27;;;2.93;;
1993;SDS011;998;49.906;10.908;2023-05-17T14:47:38;10.23;;;2.90;;
1993;SDS011;998;49.906;10.908;2023-05-17T14:50:05;5.13;;;2.53;;
1993;SDS011;998;49.906;10.908;2023-05-17T14:52:33;4.60;;;1.73;;
1993;SDS011;998;49.906;10.908;2023-05-17T14:55:02;4.43;;;2.40;;
1993;SDS011;998;49.906;10.908;2023-05-17T14:57:30;6.97;;;3.33;;
1993;SDS011;998;49.906;10.908;2023-05-17T14:59:58;4.40;;;2.30;;
1993;SDS011;998;49.906;10.908;2023-05-17T15:02:26;5.77;;;2.23;;
1993;SDS011;998;49.906;10.908;2023-05-17T15:04:53;5.93;;;2.97;;
1993;SDS011;998;49.906;10.908;2023-05-17T15:07:20;4.23;;;3.03;;
1993;SDS011;998;49.906;10.908;2023-05-17T15:09:48;7.70;;;2.53;;
1993;SDS011;998;49.906;10.908;2023-05-17T15:12:17;10.27;;;3.23;;
1993;SDS011;998;49.906;10.908;2023-05-17T15:14:44;7.73;;;2.17;;
1993;SDS011;998;49.906;10.908;2023-05-17T15:17:14;4.70;;;2.20;;
1993;SDS011;998;49.906;10.908;2023-05-17T15:19:41;5.87;;;2.27;;
1993;SDS011;998;49.906;10.908;2023-05-17T15:22:08;4.57;;;2.13;;
1993;SDS011;998;49.906;10.908;2023-05-17T15:24:36;4.63;;;2.43;;
1993;SDS011;998;49.906;10.908;2023-05-17T15:27:04;5.20;;;2.40;;
1993;SDS011;998;49.906;10.908;2023-05-17T15:29:33;4.20;;;2.20;;